Forside
METAR-TAF:

METAR-TAF

Lufthavne :

Hargeysa, Somalia

Breddekreds: 09-30N, længdekreds: 044-05E, højde: 1326 m

Aktuelle vejr

Denne rapport blev lavet for 1 time og 12 minutter siden, kl. 09:00 UTC
Vind 13 kt fra nord
Temperatur 29°C
Fugtighed 19%
Tryk 1020 hPa
Sigt 10 km eller mere
ingen skyer under 1500m og ingen cumulonimbus

METAR: HCMH 230900Z 35013KT CAVOK 29/03 Q1020

Tid: 13:12 (10:12 UTC)


TAF: fraværende

Vejrobservationer og prognoser fra mere end 4000 lufthavne (METAR og TAF).

De gule og røde prikker repræsenterer de meteorologiske stationer.

Flyt musen over at se navnet på stationen.

Så klik over at se vejr observationer og prognoser.

At skifte det kort: Klik på de grønne knapper med et sort kors for at zoome ind; på den grønne knap med en bindestreg for at zoome ud; eller på de grønne pile for tilstødende kort.


METAR-TAF: